Terminal Aerodrome Forecast
Issued by NWS

Home | Current Version | Previous Version | Text Only | Print | Product List | Glossary On
Versions: 1 2 3 4 5 6 7 8 9 10 11 12 13 14 15 16 17 18 19 20 21 22 23 24
000
FTPA31 PHFO 211737
TAFHOG
TAF
PHOG 211737Z 2118/2218 05005KT P6SM FEW015 SCT060 BKN180
     FM212000 02011KT P6SM FEW020 SCT035 BKN200
     FM220600 06006KT P6SM FEW020 SCT040 BKN200=

USA.gov is the U.S. government's official web portal to all federal, state and local government web resources and services.